sensor_id;sensor_type;location;lat;lon;timestamp;P1;durP1;ratioP1;P2;durP2;ratioP2
11313;SDS011;5712;48.858;9.206;2023-11-21T00:01:40;2.83;;;1.93;;
11313;SDS011;5712;48.858;9.206;2023-11-21T00:04:06;4.43;;;2.33;;
11313;SDS011;5712;48.858;9.206;2023-11-21T00:06:33;7.70;;;2.10;;
11313;SDS011;5712;48.858;9.206;2023-11-21T00:09:00;3.20;;;1.87;;
11313;SDS011;5712;48.858;9.206;2023-11-21T00:11:27;1.97;;;1.80;;
11313;SDS011;5712;48.858;9.206;2023-11-21T00:13:54;4.83;;;2.23;;
11313;SDS011;5712;48.858;9.206;2023-11-21T00:16:20;4.87;;;2.00;;
11313;SDS011;5712;48.858;9.206;2023-11-21T00:18:47;3.43;;;2.03;;
11313;SDS011;5712;48.858;9.206;2023-11-21T00:21:14;4.70;;;2.00;;
11313;SDS011;5712;48.858;9.206;2023-11-21T00:23:40;3.90;;;2.10;;
11313;SDS011;5712;48.858;9.206;2023-11-21T00:26:08;6.80;;;2.03;;
11313;SDS011;5712;48.858;9.206;2023-11-21T00:28:35;2.73;;;1.80;;
11313;SDS011;5712;48.858;9.206;2023-11-21T00:31:01;5.70;;;2.33;;
11313;SDS011;5712;48.858;9.206;2023-11-21T00:33:29;5.13;;;2.03;;
11313;SDS011;5712;48.858;9.206;2023-11-21T00:35:58;3.40;;;1.87;;
11313;SDS011;5712;48.858;9.206;2023-11-21T00:38:25;3.23;;;1.63;;
11313;SDS011;5712;48.858;9.206;2023-11-21T00:40:52;3.43;;;1.60;;
11313;SDS011;5712;48.858;9.206;2023-11-21T00:43:22;10.40;;;1.70;;
11313;SDS011;5712;48.858;9.206;2023-11-21T00:45:49;3.17;;;1.40;;
11313;SDS011;5712;48.858;9.206;2023-11-21T00:48:16;4.40;;;1.50;;
11313;SDS011;5712;48.858;9.206;2023-11-21T00:50:43;6.67;;;1.60;;
11313;SDS011;5712;48.858;9.206;2023-11-21T00:53:09;4.10;;;1.63;;
11313;SDS011;5712;48.858;9.206;2023-11-21T00:55:36;3.20;;;1.33;;
11313;SDS011;5712;48.858;9.206;2023-11-21T00:58:05;5.20;;;1.43;;
11313;SDS011;5712;48.858;9.206;2023-11-21T01:00:33;2.10;;;1.30;;
11313;SDS011;5712;48.858;9.206;2023-11-21T01:02:59;2.77;;;1.37;;
11313;SDS011;5712;48.858;9.206;2023-11-21T01:05:27;3.47;;;1.37;;
11313;SDS011;5712;48.858;9.206;2023-11-21T01:07:54;3.07;;;1.50;;
11313;SDS011;5712;48.858;9.206;2023-11-21T01:10:21;2.20;;;1.47;;
11313;SDS011;5712;48.858;9.206;2023-11-21T01:12:47;3.93;;;1.37;;
11313;SDS011;5712;48.858;9.206;2023-11-21T01:15:14;7.37;;;1.80;;
11313;SDS011;5712;48.858;9.206;2023-11-21T01:17:42;4.47;;;1.87;;
11313;SDS011;5712;48.858;9.206;2023-11-21T01:20:08;3.53;;;1.67;;
11313;SDS011;5712;48.858;9.206;2023-11-21T01:22:37;2.27;;;1.53;;
11313;SDS011;5712;48.858;9.206;2023-11-21T01:25:04;4.03;;;1.70;;
11313;SDS011;5712;48.858;9.206;2023-11-21T01:27:32;2.53;;;1.53;;
11313;SDS011;5712;48.858;9.206;2023-11-21T01:29:59;5.10;;;1.80;;
11313;SDS011;5712;48.858;9.206;2023-11-21T01:32:25;2.43;;;1.57;;
11313;SDS011;5712;48.858;9.206;2023-11-21T01:34:55;4.07;;;1.60;;
11313;SDS011;5712;48.858;9.206;2023-11-21T01:37:21;3.63;;;1.43;;
11313;SDS011;5712;48.858;9.206;2023-11-21T01:39:48;2.40;;;1.50;;
11313;SDS011;5712;48.858;9.206;2023-11-21T01:42:15;3.47;;;1.23;;
11313;SDS011;5712;48.858;9.206;2023-11-21T01:44:42;6.40;;;1.73;;
11313;SDS011;5712;48.858;9.206;2023-11-21T01:47:08;2.67;;;1.30;;
11313;SDS011;5712;48.858;9.206;2023-11-21T01:49:35;3.60;;;1.50;;
11313;SDS011;5712;48.858;9.206;2023-11-21T01:52:04;3.43;;;1.50;;
11313;SDS011;5712;48.858;9.206;2023-11-21T01:54:31;1.90;;;1.30;;
11313;SDS011;5712;48.858;9.206;2023-11-21T01:56:58;2.70;;;1.40;;
11313;SDS011;5712;48.858;9.206;2023-11-21T01:59:28;4.30;;;1.33;;
11313;SDS011;5712;48.858;9.206;2023-11-21T02:01:59;3.97;;;1.30;;
11313;SDS011;5712;48.858;9.206;2023-11-21T02:04:26;5.20;;;1.20;;
11313;SDS011;5712;48.858;9.206;2023-11-21T02:06:52;2.40;;;1.37;;
11313;SDS011;5712;48.858;9.206;2023-11-21T02:09:24;3.23;;;1.30;;
11313;SDS011;5712;48.858;9.206;2023-11-21T02:11:52;2.93;;;1.27;;
11313;SDS011;5712;48.858;9.206;2023-11-21T02:14:19;2.20;;;1.30;;
11313;SDS011;5712;48.858;9.206;2023-11-21T02:16:47;2.87;;;1.50;;
11313;SDS011;5712;48.858;9.206;2023-11-21T02:19:15;3.70;;;1.10;;
11313;SDS011;5712;48.858;9.206;2023-11-21T02:21:44;2.23;;;1.40;;
11313;SDS011;5712;48.858;9.206;2023-11-21T02:24:14;1.57;;;1.10;;
11313;SDS011;5712;48.858;9.206;2023-11-21T02:26:40;2.17;;;1.03;;
11313;SDS011;5712;48.858;9.206;2023-11-21T02:29:07;1.37;;;0.97;;
11313;SDS011;5712;48.858;9.206;2023-11-21T02:31:37;3.20;;;1.17;;
11313;SDS011;5712;48.858;9.206;2023-11-21T02:34:10;2.37;;;1.27;;
11313;SDS011;5712;48.858;9.206;2023-11-21T02:36:38;1.60;;;1.00;;
11313;SDS011;5712;48.858;9.206;2023-11-21T02:39:05;2.23;;;1.00;;
11313;SDS011;5712;48.858;9.206;2023-11-21T02:41:34;0.93;;;0.90;;
11313;SDS011;5712;48.858;9.206;2023-11-21T02:44:00;4.30;;;1.10;;
11313;SDS011;5712;48.858;9.206;2023-11-21T02:46:27;1.30;;;0.90;;
11313;SDS011;5712;48.858;9.206;2023-11-21T02:48:53;1.27;;;0.90;;
11313;SDS011;5712;48.858;9.206;2023-11-21T02:51:20;1.27;;;1.03;;
11313;SDS011;5712;48.858;9.206;2023-11-21T02:53:46;0.80;;;0.80;;
11313;SDS011;5712;48.858;9.206;2023-11-21T02:56:13;2.50;;;1.17;;
11313;SDS011;5712;48.858;9.206;2023-11-21T02:58:42;1.30;;;1.00;;
11313;SDS011;5712;48.858;9.206;2023-11-21T03:01:09;3.17;;;1.30;;
11313;SDS011;5712;48.858;9.206;2023-11-21T03:03:36;1.80;;;1.20;;
11313;SDS011;5712;48.858;9.206;2023-11-21T03:06:04;2.63;;;1.20;;
11313;SDS011;5712;48.858;9.206;2023-11-21T03:08:31;1.20;;;1.10;;
11313;SDS011;5712;48.858;9.206;2023-11-21T03:10:57;1.20;;;1.10;;
11313;SDS011;5712;48.858;9.206;2023-11-21T03:13:24;1.90;;;1.10;;
11313;SDS011;5712;48.858;9.206;2023-11-21T03:15:52;1.50;;;1.40;;
11313;SDS011;5712;48.858;9.206;2023-11-21T03:18:18;1.83;;;1.10;;
11313;SDS011;5712;48.858;9.206;2023-11-21T03:20:47;2.90;;;1.40;;
11313;SDS011;5712;48.858;9.206;2023-11-21T03:23:13;2.40;;;1.10;;
11313;SDS011;5712;48.858;9.206;2023-11-21T03:25:40;3.27;;;1.20;;
11313;SDS011;5712;48.858;9.206;2023-11-21T03:28:06;1.00;;;0.70;;
11313;SDS011;5712;48.858;9.206;2023-11-21T03:30:34;2.70;;;1.07;;
11313;SDS011;5712;48.858;9.206;2023-11-21T03:33:02;1.90;;;1.00;;
11313;SDS011;5712;48.858;9.206;2023-11-21T03:35:28;1.00;;;0.90;;
11313;SDS011;5712;48.858;9.206;2023-11-21T03:37:55;1.10;;;1.00;;
11313;SDS011;5712;48.858;9.206;2023-11-21T03:40:21;2.20;;;0.80;;
11313;SDS011;5712;48.858;9.206;2023-11-21T03:42:48;2.37;;;0.90;;
11313;SDS011;5712;48.858;9.206;2023-11-21T03:45:16;2.23;;;1.10;;
11313;SDS011;5712;48.858;9.206;2023-11-21T03:47:43;1.93;;;1.00;;
11313;SDS011;5712;48.858;9.206;2023-11-21T03:50:11;3.53;;;0.90;;
11313;SDS011;5712;48.858;9.206;2023-11-21T03:52:37;3.50;;;0.93;;
11313;SDS011;5712;48.858;9.206;2023-11-21T03:55:04;2.67;;;1.00;;
11313;SDS011;5712;48.858;9.206;2023-11-21T03:57:30;1.80;;;0.90;;
11313;SDS011;5712;48.858;9.206;2023-11-21T03:59:56;1.97;;;0.87;;
11313;SDS011;5712;48.858;9.206;2023-11-21T04:02:23;1.87;;;1.07;;
11313;SDS011;5712;48.858;9.206;2023-11-21T04:04:51;3.13;;;0.90;;
11313;SDS011;5712;48.858;9.206;2023-11-21T04:07:18;0.80;;;0.80;;
11313;SDS011;5712;48.858;9.206;2023-11-21T04:09:47;3.17;;;1.07;;
11313;SDS011;5712;48.858;9.206;2023-11-21T04:12:13;2.00;;;1.00;;
11313;SDS011;5712;48.858;9.206;2023-11-21T04:14:40;2.57;;;1.10;;
11313;SDS011;5712;48.858;9.206;2023-11-21T04:17:06;2.67;;;1.10;;
11313;SDS011;5712;48.858;9.206;2023-11-21T04:19:33;1.13;;;0.80;;
11313;SDS011;5712;48.858;9.206;2023-11-21T04:21:59;3.80;;;0.90;;
11313;SDS011;5712;48.858;9.206;2023-11-21T04:24:27;2.30;;;1.20;;
11313;SDS011;5712;48.858;9.206;2023-11-21T04:26:53;1.23;;;0.90;;
11313;SDS011;5712;48.858;9.206;2023-11-21T04:29:20;1.20;;;0.90;;
11313;SDS011;5712;48.858;9.206;2023-11-21T04:31:46;2.00;;;1.00;;
11313;SDS011;5712;48.858;9.206;2023-11-21T04:34:13;1.00;;;0.70;;
11313;SDS011;5712;48.858;9.206;2023-11-21T04:36:40;1.67;;;1.00;;
11313;SDS011;5712;48.858;9.206;2023-11-21T04:39:06;1.20;;;1.00;;
11313;SDS011;5712;48.858;9.206;2023-11-21T04:41:35;0.80;;;0.80;;
11313;SDS011;5712;48.858;9.206;2023-11-21T04:44:04;2.43;;;1.03;;
11313;SDS011;5712;48.858;9.206;2023-11-21T04:46:31;0.70;;;0.70;;
11313;SDS011;5712;48.858;9.206;2023-11-21T04:48:57;0.80;;;0.80;;
11313;SDS011;5712;48.858;9.206;2023-11-21T04:51:24;0.90;;;0.90;;
11313;SDS011;5712;48.858;9.206;2023-11-21T04:53:51;2.73;;;1.07;;
11313;SDS011;5712;48.858;9.206;2023-11-21T04:56:17;1.97;;;1.00;;
11313;SDS011;5712;48.858;9.206;2023-11-21T04:58:45;1.33;;;1.10;;
11313;SDS011;5712;48.858;9.206;2023-11-21T05:01:11;1.70;;;1.10;;
11313;SDS011;5712;48.858;9.206;2023-11-21T05:03:38;1.33;;;0.90;;
11313;SDS011;5712;48.858;9.206;2023-11-21T05:06:05;2.20;;;1.10;;
11313;SDS011;5712;48.858;9.206;2023-11-21T05:08:32;1.90;;;1.00;;
11313;SDS011;5712;48.858;9.206;2023-11-21T05:10:59;1.53;;;1.10;;
11313;SDS011;5712;48.858;9.206;2023-11-21T05:13:25;1.30;;;1.00;;
11313;SDS011;5712;48.858;9.206;2023-11-21T05:15:54;1.57;;;1.00;;
11313;SDS011;5712;48.858;9.206;2023-11-21T05:18:20;2.13;;;1.33;;
11313;SDS011;5712;48.858;9.206;2023-11-21T05:20:47;2.17;;;1.30;;
11313;SDS011;5712;48.858;9.206;2023-11-21T05:23:14;1.57;;;1.00;;
11313;SDS011;5712;48.858;9.206;2023-11-21T05:25:40;1.17;;;0.70;;
11313;SDS011;5712;48.858;9.206;2023-11-21T05:28:07;1.83;;;0.90;;
11313;SDS011;5712;48.858;9.206;2023-11-21T05:30:33;1.67;;;0.80;;
11313;SDS011;5712;48.858;9.206;2023-11-21T05:33:01;1.03;;;0.77;;
11313;SDS011;5712;48.858;9.206;2023-11-21T05:35:28;1.10;;;0.93;;
11313;SDS011;5712;48.858;9.206;2023-11-21T05:37:54;0.87;;;0.73;;
11313;SDS011;5712;48.858;9.206;2023-11-21T05:40:21;1.57;;;1.00;;
11313;SDS011;5712;48.858;9.206;2023-11-21T05:42:48;1.03;;;0.60;;
11313;SDS011;5712;48.858;9.206;2023-11-21T05:45:16;0.77;;;0.77;;
11313;SDS011;5712;48.858;9.206;2023-11-21T05:47:44;0.80;;;0.80;;
11313;SDS011;5712;48.858;9.206;2023-11-21T05:50:13;0.80;;;0.80;;
11313;SDS011;5712;48.858;9.206;2023-11-21T05:52:41;2.00;;;0.87;;
11313;SDS011;5712;48.858;9.206;2023-11-21T05:55:08;1.33;;;0.73;;
11313;SDS011;5712;48.858;9.206;2023-11-21T05:57:35;1.47;;;0.90;;
11313;SDS011;5712;48.858;9.206;2023-11-21T06:00:03;2.93;;;1.00;;
11313;SDS011;5712;48.858;9.206;2023-11-21T06:02:36;0.83;;;0.80;;
11313;SDS011;5712;48.858;9.206;2023-11-21T06:05:03;1.37;;;0.90;;
11313;SDS011;5712;48.858;9.206;2023-11-21T06:07:31;1.27;;;1.00;;
11313;SDS011;5712;48.858;9.206;2023-11-21T06:09:58;2.80;;;0.87;;
11313;SDS011;5712;48.858;9.206;2023-11-21T06:12:24;1.30;;;0.90;;
11313;SDS011;5712;48.858;9.206;2023-11-21T06:14:51;2.17;;;1.40;;
11313;SDS011;5712;48.858;9.206;2023-11-21T06:17:18;2.47;;;1.37;;
11313;SDS011;5712;48.858;9.206;2023-11-21T06:19:44;2.83;;;1.30;;
11313;SDS011;5712;48.858;9.206;2023-11-21T06:22:11;1.50;;;1.10;;
11313;SDS011;5712;48.858;9.206;2023-11-21T06:24:39;2.17;;;1.37;;
11313;SDS011;5712;48.858;9.206;2023-11-21T06:27:07;1.30;;;1.17;;
11313;SDS011;5712;48.858;9.206;2023-11-21T06:29:34;2.03;;;1.30;;
11313;SDS011;5712;48.858;9.206;2023-11-21T06:32:02;2.77;;;1.37;;
11313;SDS011;5712;48.858;9.206;2023-11-21T06:34:30;1.30;;;1.20;;
11313;SDS011;5712;48.858;9.206;2023-11-21T06:36:56;2.20;;;1.30;;
11313;SDS011;5712;48.858;9.206;2023-11-21T06:39:23;2.20;;;1.00;;
11313;SDS011;5712;48.858;9.206;2023-11-21T06:41:51;1.30;;;1.13;;
11313;SDS011;5712;48.858;9.206;2023-11-21T06:44:17;1.60;;;1.10;;
11313;SDS011;5712;48.858;9.206;2023-11-21T06:46:44;2.50;;;1.20;;
11313;SDS011;5712;48.858;9.206;2023-11-21T06:49:11;1.47;;;1.20;;
11313;SDS011;5712;48.858;9.206;2023-11-21T06:51:37;1.50;;;1.33;;
11313;SDS011;5712;48.858;9.206;2023-11-21T06:54:04;2.30;;;1.60;;
11313;SDS011;5712;48.858;9.206;2023-11-21T06:56:32;2.37;;;1.20;;
11313;SDS011;5712;48.858;9.206;2023-11-21T06:59:00;2.83;;;1.53;;
11313;SDS011;5712;48.858;9.206;2023-11-21T07:01:26;1.83;;;1.27;;
11313;SDS011;5712;48.858;9.206;2023-11-21T07:03:53;2.33;;;1.40;;
11313;SDS011;5712;48.858;9.206;2023-11-21T07:06:18;1.93;;;1.40;;
11313;SDS011;5712;48.858;9.206;2023-11-21T07:08:45;1.90;;;1.40;;
11313;SDS011;5712;48.858;9.206;2023-11-21T07:11:12;1.30;;;1.20;;
11313;SDS011;5712;48.858;9.206;2023-11-21T07:13:38;3.17;;;1.50;;
11313;SDS011;5712;48.858;9.206;2023-11-21T07:16:07;2.53;;;1.50;;
11313;SDS011;5712;48.858;9.206;2023-11-21T07:18:34;2.47;;;1.83;;
11313;SDS011;5712;48.858;9.206;2023-11-21T07:21:00;2.07;;;1.50;;
11313;SDS011;5712;48.858;9.206;2023-11-21T07:23:27;1.97;;;1.57;;
11313;SDS011;5712;48.858;9.206;2023-11-21T07:25:53;2.23;;;1.67;;
11313;SDS011;5712;48.858;9.206;2023-11-21T07:28:20;3.47;;;1.90;;
11313;SDS011;5712;48.858;9.206;2023-11-21T07:30:46;2.27;;;1.80;;
11313;SDS011;5712;48.858;9.206;2023-11-21T07:33:14;2.67;;;2.03;;
11313;SDS011;5712;48.858;9.206;2023-11-21T07:35:41;2.50;;;2.20;;
11313;SDS011;5712;48.858;9.206;2023-11-21T07:38:07;2.70;;;2.13;;
11313;SDS011;5712;48.858;9.206;2023-11-21T07:40:34;3.03;;;2.40;;
11313;SDS011;5712;48.858;9.206;2023-11-21T07:43:00;3.27;;;2.50;;
11313;SDS011;5712;48.858;9.206;2023-11-21T07:45:27;3.63;;;2.27;;
11313;SDS011;5712;48.858;9.206;2023-11-21T07:47:53;3.07;;;2.33;;
11313;SDS011;5712;48.858;9.206;2023-11-21T07:50:21;2.37;;;1.90;;
11313;SDS011;5712;48.858;9.206;2023-11-21T07:52:48;3.30;;;2.63;;
11313;SDS011;5712;48.858;9.206;2023-11-21T07:55:15;3.53;;;2.30;;
11313;SDS011;5712;48.858;9.206;2023-11-21T07:57:42;1.83;;;1.70;;
11313;SDS011;5712;48.858;9.206;2023-11-21T08:00:08;2.23;;;1.87;;
11313;SDS011;5712;48.858;9.206;2023-11-21T08:02:37;2.47;;;1.77;;
11313;SDS011;5712;48.858;9.206;2023-11-21T08:05:04;4.97;;;1.87;;
11313;SDS011;5712;48.858;9.206;2023-11-21T08:07:33;1.93;;;1.70;;
11313;SDS011;5712;48.858;9.206;2023-11-21T08:10:00;2.50;;;1.80;;
11313;SDS011;5712;48.858;9.206;2023-11-21T08:12:26;2.20;;;1.80;;
11313;SDS011;5712;48.858;9.206;2023-11-21T08:14:53;1.93;;;1.73;;
11313;SDS011;5712;48.858;9.206;2023-11-21T08:17:19;2.50;;;1.77;;
11313;SDS011;5712;48.858;9.206;2023-11-21T08:19:46;2.47;;;1.70;;
11313;SDS011;5712;48.858;9.206;2023-11-21T08:22:14;2.00;;;1.80;;
11313;SDS011;5712;48.858;9.206;2023-11-21T08:24:43;1.70;;;1.60;;
11313;SDS011;5712;48.858;9.206;2023-11-21T08:27:11;2.37;;;1.80;;
11313;SDS011;5712;48.858;9.206;2023-11-21T08:29:40;2.60;;;2.10;;
11313;SDS011;5712;48.858;9.206;2023-11-21T08:32:07;2.10;;;1.67;;
11313;SDS011;5712;48.858;9.206;2023-11-21T08:34:33;2.57;;;2.00;;
11313;SDS011;5712;48.858;9.206;2023-11-21T08:37:00;2.60;;;1.90;;
11313;SDS011;5712;48.858;9.206;2023-11-21T08:39:26;1.90;;;1.60;;
11313;SDS011;5712;48.858;9.206;2023-11-21T08:41:54;3.27;;;2.10;;
11313;SDS011;5712;48.858;9.206;2023-11-21T08:44:20;2.53;;;2.23;;
11313;SDS011;5712;48.858;9.206;2023-11-21T08:46:48;2.60;;;2.10;;
11313;SDS011;5712;48.858;9.206;2023-11-21T08:49:14;4.27;;;2.13;;
11313;SDS011;5712;48.858;9.206;2023-11-21T08:51:42;2.60;;;2.00;;
11313;SDS011;5712;48.858;9.206;2023-11-21T08:54:10;4.63;;;2.50;;
11313;SDS011;5712;48.858;9.206;2023-11-21T08:56:37;2.57;;;2.13;;
11313;SDS011;5712;48.858;9.206;2023-11-21T08:59:05;2.97;;;1.97;;
11313;SDS011;5712;48.858;9.206;2023-11-21T09:01:32;3.60;;;2.70;;
11313;SDS011;5712;48.858;9.206;2023-11-21T09:03:59;3.80;;;2.60;;
11313;SDS011;5712;48.858;9.206;2023-11-21T09:06:26;2.40;;;2.20;;
11313;SDS011;5712;48.858;9.206;2023-11-21T09:08:52;2.60;;;2.40;;
11313;SDS011;5712;48.858;9.206;2023-11-21T09:11:18;3.73;;;1.90;;
11313;SDS011;5712;48.858;9.206;2023-11-21T09:13:45;9.27;;;5.00;;
11313;SDS011;5712;48.858;9.206;2023-11-21T09:16:14;3.50;;;2.43;;
11313;SDS011;5712;48.858;9.206;2023-11-21T09:18:41;2.03;;;1.70;;
11313;SDS011;5712;48.858;9.206;2023-11-21T09:21:08;1.70;;;1.23;;
11313;SDS011;5712;48.858;9.206;2023-11-21T09:23:35;1.30;;;1.20;;
11313;SDS011;5712;48.858;9.206;2023-11-21T09:26:01;1.67;;;1.20;;
11313;SDS011;5712;48.858;9.206;2023-11-21T09:28:28;1.17;;;1.07;;
11313;SDS011;5712;48.858;9.206;2023-11-21T09:30:54;1.30;;;1.20;;
11313;SDS011;5712;48.858;9.206;2023-11-21T09:33:22;1.20;;;1.10;;
11313;SDS011;5712;48.858;9.206;2023-11-21T09:35:50;1.50;;;1.30;;
11313;SDS011;5712;48.858;9.206;2023-11-21T09:38:17;2.70;;;1.50;;
11313;SDS011;5712;48.858;9.206;2023-11-21T09:40:44;1.50;;;1.40;;
11313;SDS011;5712;48.858;9.206;2023-11-21T09:43:13;1.97;;;1.50;;
11313;SDS011;5712;48.858;9.206;2023-11-21T09:45:43;3.23;;;1.27;;
11313;SDS011;5712;48.858;9.206;2023-11-21T09:48:12;1.57;;;1.30;;
11313;SDS011;5712;48.858;9.206;2023-11-21T09:50:40;2.57;;;1.23;;
11313;SDS011;5712;48.858;9.206;2023-11-21T09:53:09;1.00;;;1.00;;
11313;SDS011;5712;48.858;9.206;2023-11-21T09:55:41;1.63;;;1.20;;
11313;SDS011;5712;48.858;9.206;2023-11-21T09:58:09;1.53;;;1.30;;
11313;SDS011;5712;48.858;9.206;2023-11-21T10:00:39;1.40;;;1.30;;
11313;SDS011;5712;48.858;9.206;2023-11-21T10:03:06;1.40;;;1.10;;
11313;SDS011;5712;48.858;9.206;2023-11-21T10:05:33;2.03;;;1.10;;
11313;SDS011;5712;48.858;9.206;2023-11-21T10:08:01;1.63;;;0.90;;
11313;SDS011;5712;48.858;9.206;2023-11-21T10:10:31;1.67;;;1.13;;
11313;SDS011;5712;48.858;9.206;2023-11-21T10:13:01;1.50;;;1.17;;
11313;SDS011;5712;48.858;9.206;2023-11-21T10:15:29;2.80;;;2.00;;
11313;SDS011;5712;48.858;9.206;2023-11-21T10:17:59;1.80;;;1.60;;
11313;SDS011;5712;48.858;9.206;2023-11-21T10:20:29;1.90;;;1.50;;
11313;SDS011;5712;48.858;9.206;2023-11-21T10:22:58;1.50;;;1.10;;
11313;SDS011;5712;48.858;9.206;2023-11-21T10:25:28;1.10;;;1.00;;
11313;SDS011;5712;48.858;9.206;2023-11-21T10:27:57;1.27;;;1.13;;
11313;SDS011;5712;48.858;9.206;2023-11-21T10:30:27;1.30;;;1.20;;
11313;SDS011;5712;48.858;9.206;2023-11-21T10:32:58;1.63;;;1.30;;
11313;SDS011;5712;48.858;9.206;2023-11-21T10:35:25;1.97;;;0.90;;
11313;SDS011;5712;48.858;9.206;2023-11-21T10:38:04;1.37;;;0.97;;
11313;SDS011;5712;48.858;9.206;2023-11-21T10:40:34;1.40;;;1.00;;
11313;SDS011;5712;48.858;9.206;2023-11-21T10:43:05;1.23;;;1.10;;
11313;SDS011;5712;48.858;9.206;2023-11-21T10:45:33;1.13;;;0.80;;
11313;SDS011;5712;48.858;9.206;2023-11-21T10:48:04;1.60;;;0.70;;
11313;SDS011;5712;48.858;9.206;2023-11-21T10:50:32;0.87;;;0.87;;
11313;SDS011;5712;48.858;9.206;2023-11-21T10:53:00;1.00;;;0.80;;
11313;SDS011;5712;48.858;9.206;2023-11-21T10:55:27;0.87;;;0.83;;
11313;SDS011;5712;48.858;9.206;2023-11-21T10:57:55;1.30;;;1.23;;
11313;SDS011;5712;48.858;9.206;2023-11-21T11:00:24;0.87;;;0.87;;
11313;SDS011;5712;48.858;9.206;2023-11-21T11:02:53;1.60;;;1.10;;
11313;SDS011;5712;48.858;9.206;2023-11-21T11:05:20;1.33;;;1.23;;
11313;SDS011;5712;48.858;9.206;2023-11-21T11:07:50;1.67;;;1.30;;
11313;SDS011;5712;48.858;9.206;2023-11-21T11:10:19;2.57;;;1.60;;
11313;SDS011;5712;48.858;9.206;2023-11-21T11:12:48;1.83;;;1.40;;
11313;SDS011;5712;48.858;9.206;2023-11-21T11:15:16;2.33;;;1.63;;
11313;SDS011;5712;48.858;9.206;2023-11-21T11:17:43;2.17;;;1.80;;
11313;SDS011;5712;48.858;9.206;2023-11-21T11:20:12;1.97;;;1.57;;
11313;SDS011;5712;48.858;9.206;2023-11-21T11:22:42;2.03;;;1.93;;
11313;SDS011;5712;48.858;9.206;2023-11-21T11:25:18;2.90;;;2.10;;
11313;SDS011;5712;48.858;9.206;2023-11-21T11:27:54;2.23;;;1.93;;
11313;SDS011;5712;48.858;9.206;2023-11-21T11:30:31;3.50;;;2.20;;
11313;SDS011;5712;48.858;9.206;2023-11-21T11:33:08;3.13;;;1.63;;
11313;SDS011;5712;48.858;9.206;2023-11-21T11:35:42;2.50;;;1.77;;
11313;SDS011;5712;48.858;9.206;2023-11-21T11:38:16;2.33;;;2.00;;
11313;SDS011;5712;48.858;9.206;2023-11-21T11:40:44;2.20;;;2.00;;
11313;SDS011;5712;48.858;9.206;2023-11-21T11:43:12;2.20;;;1.50;;
11313;SDS011;5712;48.858;9.206;2023-11-21T11:45:40;2.00;;;1.80;;
11313;SDS011;5712;48.858;9.206;2023-11-21T11:48:07;3.33;;;2.00;;
11313;SDS011;5712;48.858;9.206;2023-11-21T11:50:34;2.23;;;1.90;;
11313;SDS011;5712;48.858;9.206;2023-11-21T11:53:13;2.00;;;1.73;;
11313;SDS011;5712;48.858;9.206;2023-11-21T11:55:41;2.07;;;1.87;;
11313;SDS011;5712;48.858;9.206;2023-11-21T11:58:07;2.60;;;2.00;;
11313;SDS011;5712;48.858;9.206;2023-11-21T12:00:34;2.77;;;2.33;;
11313;SDS011;5712;48.858;9.206;2023-11-21T12:03:07;3.10;;;2.50;;
11313;SDS011;5712;48.858;9.206;2023-11-21T12:05:34;2.93;;;2.20;;
11313;SDS011;5712;48.858;9.206;2023-11-21T12:08:04;2.10;;;1.83;;
11313;SDS011;5712;48.858;9.206;2023-11-21T12:10:32;2.40;;;2.17;;
11313;SDS011;5712;48.858;9.206;2023-11-21T12:13:00;2.57;;;2.07;;
11313;SDS011;5712;48.858;9.206;2023-11-21T12:15:28;2.50;;;2.27;;
11313;SDS011;5712;48.858;9.206;2023-11-21T12:17:56;2.77;;;2.20;;
11313;SDS011;5712;48.858;9.206;2023-11-21T12:20:26;2.57;;;2.33;;
11313;SDS011;5712;48.858;9.206;2023-11-21T12:22:54;2.80;;;2.43;;
11313;SDS011;5712;48.858;9.206;2023-11-21T12:25:24;3.97;;;2.53;;
11313;SDS011;5712;48.858;9.206;2023-11-21T12:27:54;3.50;;;2.43;;
11313;SDS011;5712;48.858;9.206;2023-11-21T12:30:22;2.40;;;2.13;;
11313;SDS011;5712;48.858;9.206;2023-11-21T12:32:53;2.53;;;2.30;;
11313;SDS011;5712;48.858;9.206;2023-11-21T12:35:22;2.40;;;2.20;;
11313;SDS011;5712;48.858;9.206;2023-11-21T12:37:51;2.03;;;1.80;;
11313;SDS011;5712;48.858;9.206;2023-11-21T12:40:18;2.87;;;2.27;;
11313;SDS011;5712;48.858;9.206;2023-11-21T12:42:48;2.90;;;2.40;;
11313;SDS011;5712;48.858;9.206;2023-11-21T12:45:20;2.80;;;2.40;;
11313;SDS011;5712;48.858;9.206;2023-11-21T12:47:48;2.40;;;2.20;;
11313;SDS011;5712;48.858;9.206;2023-11-21T12:50:18;2.87;;;2.40;;
11313;SDS011;5712;48.858;9.206;2023-11-21T12:52:48;2.20;;;2.00;;
11313;SDS011;5712;48.858;9.206;2023-11-21T12:55:18;2.20;;;2.00;;
11313;SDS011;5712;48.858;9.206;2023-11-21T12:57:47;3.07;;;2.33;;
11313;SDS011;5712;48.858;9.206;2023-11-21T13:00:15;2.60;;;2.40;;
11313;SDS011;5712;48.858;9.206;2023-11-21T13:02:52;3.17;;;2.43;;
11313;SDS011;5712;48.858;9.206;2023-11-21T13:05:28;3.03;;;2.50;;
11313;SDS011;5712;48.858;9.206;2023-11-21T13:07:57;4.73;;;2.30;;
11313;SDS011;5712;48.858;9.206;2023-11-21T13:10:27;3.07;;;2.43;;
11313;SDS011;5712;48.858;9.206;2023-11-21T13:12:56;3.53;;;2.03;;
11313;SDS011;5712;48.858;9.206;2023-11-21T13:15:24;3.20;;;2.40;;
11313;SDS011;5712;48.858;9.206;2023-11-21T13:17:52;2.60;;;2.40;;
11313;SDS011;5712;48.858;9.206;2023-11-21T13:20:21;2.83;;;2.10;;
11313;SDS011;5712;48.858;9.206;2023-11-21T13:22:49;4.53;;;2.47;;
11313;SDS011;5712;48.858;9.206;2023-11-21T13:25:20;3.27;;;2.13;;
11313;SDS011;5712;48.858;9.206;2023-11-21T13:27:47;2.60;;;2.20;;
11313;SDS011;5712;48.858;9.206;2023-11-21T13:30:13;2.63;;;1.80;;
11313;SDS011;5712;48.858;9.206;2023-11-21T13:32:48;2.30;;;2.10;;
11313;SDS011;5712;48.858;9.206;2023-11-21T13:35:16;2.77;;;2.37;;
11313;SDS011;5712;48.858;9.206;2023-11-21T13:37:47;2.03;;;1.83;;
11313;SDS011;5712;48.858;9.206;2023-11-21T13:40:16;2.10;;;1.90;;
11313;SDS011;5712;48.858;9.206;2023-11-21T13:42:50;2.50;;;2.30;;
11313;SDS011;5712;48.858;9.206;2023-11-21T13:45:20;3.37;;;2.70;;
11313;SDS011;5712;48.858;9.206;2023-11-21T13:47:48;3.03;;;2.60;;
11313;SDS011;5712;48.858;9.206;2023-11-21T13:50:16;2.87;;;2.20;;
11313;SDS011;5712;48.858;9.206;2023-11-21T13:52:47;1.97;;;1.77;;
11313;SDS011;5712;48.858;9.206;2023-11-21T13:55:15;2.20;;;1.70;;
11313;SDS011;5712;48.858;9.206;2023-11-21T13:57:42;1.97;;;1.50;;
11313;SDS011;5712;48.858;9.206;2023-11-21T14:00:12;2.47;;;1.50;;
11313;SDS011;5712;48.858;9.206;2023-11-21T14:02:59;2.07;;;1.40;;
11313;SDS011;5712;48.858;9.206;2023-11-21T14:05:30;2.73;;;1.70;;
11313;SDS011;5712;48.858;9.206;2023-11-21T14:07:58;1.87;;;1.63;;
11313;SDS011;5712;48.858;9.206;2023-11-21T14:10:29;1.70;;;1.27;;
11313;SDS011;5712;48.858;9.206;2023-11-21T14:13:03;1.77;;;1.27;;
11313;SDS011;5712;48.858;9.206;2023-11-21T14:15:30;2.27;;;1.23;;
11313;SDS011;5712;48.858;9.206;2023-11-21T14:17:58;1.63;;;1.27;;
11313;SDS011;5712;48.858;9.206;2023-11-21T14:20:27;2.93;;;1.20;;
11313;SDS011;5712;48.858;9.206;2023-11-21T14:22:55;1.57;;;1.13;;
11313;SDS011;5712;48.858;9.206;2023-11-21T14:25:21;1.20;;;1.10;;
11313;SDS011;5712;48.858;9.206;2023-11-21T14:27:48;2.73;;;1.40;;
11313;SDS011;5712;48.858;9.206;2023-11-21T14:30:15;4.87;;;1.50;;
11313;SDS011;5712;48.858;9.206;2023-11-21T14:32:44;2.07;;;1.60;;
11313;SDS011;5712;48.858;9.206;2023-11-21T14:35:10;2.47;;;1.60;;
11313;SDS011;5712;48.858;9.206;2023-11-21T14:37:37;2.13;;;1.73;;
11313;SDS011;5712;48.858;9.206;2023-11-21T14:40:04;2.00;;;1.67;;
11313;SDS011;5712;48.858;9.206;2023-11-21T14:42:32;2.47;;;1.97;;
11313;SDS011;5712;48.858;9.206;2023-11-21T14:45:02;2.10;;;1.73;;
11313;SDS011;5712;48.858;9.206;2023-11-21T14:47:33;1.73;;;1.60;;
11313;SDS011;5712;48.858;9.206;2023-11-21T14:49:59;2.40;;;2.20;;
11313;SDS011;5712;48.858;9.206;2023-11-21T14:52:44;2.00;;;1.73;;
11313;SDS011;5712;48.858;9.206;2023-11-21T14:55:20;2.80;;;1.83;;
11313;SDS011;5712;48.858;9.206;2023-11-21T14:57:56;2.20;;;1.50;;
11313;SDS011;5712;48.858;9.206;2023-11-21T15:00:22;2.87;;;1.80;;
11313;SDS011;5712;48.858;9.206;2023-11-21T15:03:08;2.70;;;1.73;;
11313;SDS011;5712;48.858;9.206;2023-11-21T15:05:34;2.83;;;1.80;;